createdAt,value
2019-03-01T00:00:20.475Z,0
2019-03-01T00:01:30.581Z,0
2019-03-01T00:02:40.696Z,0
2019-03-01T00:03:50.813Z,0
2019-03-01T00:05:00.940Z,0
2019-03-01T00:06:11.044Z,0
2019-03-01T00:07:21.172Z,0
2019-03-01T00:08:31.498Z,0
2019-03-01T00:09:41.618Z,0
2019-03-01T00:10:51.730Z,0
2019-03-01T00:12:01.845Z,0
2019-03-01T00:13:11.962Z,0
2019-03-01T00:14:22.090Z,0
2019-03-01T00:15:32.459Z,0
2019-03-01T00:16:42.604Z,0
2019-03-01T00:17:52.725Z,0
2019-03-01T00:19:02.845Z,0
2019-03-01T00:20:12.712Z,0
2019-03-01T00:21:22.845Z,0
2019-03-01T00:22:32.970Z,0
2019-03-01T00:23:43.071Z,0
2019-03-01T00:24:53.200Z,0
2019-03-01T00:26:03.302Z,0
2019-03-01T00:27:13.407Z,0
2019-03-01T00:28:23.525Z,0
2019-03-01T00:29:33.647Z,0
2019-03-01T00:30:43.500Z,0
2019-03-01T00:31:53.624Z,0
2019-03-01T00:33:03.768Z,0
2019-03-01T00:34:14.886Z,0
2019-03-01T00:35:24.999Z,0
2019-03-01T00:36:35.123Z,0
2019-03-01T00:37:44.980Z,0
2019-03-01T00:38:55.116Z,0
2019-03-01T00:40:05.236Z,0
2019-03-01T00:41:15.422Z,0
2019-03-01T00:42:25.524Z,0
2019-03-01T00:43:35.639Z,0
2019-03-01T00:44:47.513Z,0
2019-03-01T00:45:57.927Z,0
2019-03-01T00:47:08.029Z,0
2019-03-01T00:48:18.131Z,0
2019-03-01T00:49:27.731Z,0
2019-03-01T00:50:37.830Z,0
2019-03-01T00:51:47.937Z,0
2019-03-01T00:52:58.057Z,0
2019-03-01T00:54:07.817Z,0
2019-03-01T00:55:17.931Z,0
2019-03-01T00:56:28.068Z,0
2019-03-01T00:57:38.187Z,0
2019-03-01T00:58:48.288Z,0
2019-03-01T00:59:58.470Z,0
2019-03-01T01:01:08.597Z,0
2019-03-01T01:02:18.723Z,0
2019-03-01T01:03:28.822Z,0
2019-03-01T01:04:38.932Z,0
2019-03-01T01:05:49.039Z,0
2019-03-01T01:06:59.157Z,0
2019-03-01T01:08:09.281Z,0
2019-03-01T01:09:19.383Z,0
2019-03-01T01:10:29.508Z,0
2019-03-01T01:11:39.614Z,0
2019-03-01T01:12:49.729Z,0
2019-03-01T01:13:59.841Z,0
2019-03-01T01:15:10.027Z,0
2019-03-01T01:16:20.202Z,0
2019-03-01T01:17:30.319Z,0
2019-03-01T01:18:40.427Z,0
2019-03-01T01:19:50.529Z,0
2019-03-01T01:21:00.640Z,0
2019-03-01T01:22:10.736Z,0
2019-03-01T01:23:20.872Z,0
2019-03-01T01:24:30.981Z,0
2019-03-01T01:25:41.086Z,0
2019-03-01T01:26:51.200Z,0
2019-03-01T01:28:01.296Z,0
2019-03-01T01:29:11.404Z,0
2019-03-01T01:30:21.544Z,0
2019-03-01T01:31:31.662Z,0
2019-03-01T01:32:41.761Z,0
2019-03-01T01:33:51.881Z,0
2019-03-01T01:35:02.022Z,0
2019-03-01T01:36:12.144Z,0
2019-03-01T01:37:22.042Z,0
2019-03-01T01:38:32.146Z,0
2019-03-01T01:39:42.246Z,0
2019-03-01T01:40:52.384Z,0
2019-03-01T01:42:02.227Z,0
2019-03-01T01:43:11.971Z,0
2019-03-01T01:44:22.071Z,0
2019-03-01T01:45:32.215Z,0
2019-03-01T01:46:42.324Z,0
2019-03-01T01:47:52.455Z,0
2019-03-01T01:49:02.579Z,0
2019-03-01T01:50:12.706Z,0
2019-03-01T01:51:22.835Z,0
2019-03-01T01:52:32.981Z,0
2019-03-01T01:53:43.102Z,0
2019-03-01T01:54:53.213Z,0
2019-03-01T01:56:03.325Z,0
2019-03-01T01:57:13.438Z,0
2019-03-01T01:58:23.292Z,0
2019-03-01T01:59:33.401Z,0
2019-03-01T02:00:43.519Z,0
2019-03-01T02:01:53.639Z,0
2019-03-01T02:03:03.756Z,0
2019-03-01T02:04:13.872Z,0
2019-03-01T02:05:23.977Z,0
2019-03-01T02:06:34.105Z,0
2019-03-01T02:07:44.241Z,0
2019-03-01T02:08:54.359Z,0
2019-03-01T02:10:04.498Z,0
2019-03-01T02:11:14.610Z,0
2019-03-01T02:12:24.471Z,0
2019-03-01T02:13:34.646Z,0
2019-03-01T02:14:44.752Z,0
2019-03-01T02:15:54.883Z,0
2019-03-01T02:17:04.997Z,0
2019-03-01T02:18:15.103Z,0
2019-03-01T02:19:25.255Z,0
2019-03-01T02:20:35.382Z,0
2019-03-01T02:21:45.474Z,0
2019-03-01T02:22:55.597Z,0
2019-03-01T02:24:05.727Z,0
2019-03-01T02:25:15.838Z,0
2019-03-01T02:26:25.946Z,0
2019-03-01T02:27:36.070Z,0
2019-03-01T02:28:46.190Z,0
2019-03-01T02:29:56.295Z,0
2019-03-01T02:31:06.070Z,0
2019-03-01T02:32:16.179Z,0
2019-03-01T02:33:26.348Z,0
2019-03-01T02:34:36.482Z,0
2019-03-01T02:35:46.596Z,0
2019-03-01T02:36:56.453Z,0
2019-03-01T02:38:06.580Z,0
2019-03-01T02:39:16.720Z,0
2019-03-01T02:40:26.828Z,0
2019-03-01T02:41:36.946Z,0
2019-03-01T02:42:47.107Z,0
2019-03-01T02:43:57.268Z,0
2019-03-01T02:45:07.525Z,0
2019-03-01T02:46:17.687Z,0
2019-03-01T02:47:27.583Z,0
2019-03-01T02:48:37.707Z,0
2019-03-01T02:49:47.831Z,0
2019-03-01T02:50:57.954Z,0
2019-03-01T02:52:08.067Z,0
2019-03-01T02:53:17.941Z,0
2019-03-01T02:54:27.703Z,0
2019-03-01T02:55:37.798Z,0
2019-03-01T02:56:47.905Z,0
2019-03-01T02:57:58.031Z,0
2019-03-01T02:59:07.884Z,0
2019-03-01T03:00:17.991Z,0
2019-03-01T03:01:28.116Z,0
2019-03-01T03:02:38.222Z,0
2019-03-01T03:03:48.331Z,0
2019-03-01T03:04:58.445Z,0
2019-03-01T03:06:08.577Z,0
2019-03-01T03:07:18.746Z,0
2019-03-01T03:08:29.465Z,0
2019-03-01T03:09:39.583Z,0
2019-03-01T03:10:49.708Z,0
2019-03-01T03:11:59.819Z,0
2019-03-01T03:13:10.190Z,0
2019-03-01T03:14:20.307Z,0
2019-03-01T03:15:30.421Z,0
2019-03-01T03:16:40.291Z,0
2019-03-01T03:17:50.424Z,0
2019-03-01T03:19:00.531Z,0
2019-03-01T03:20:10.657Z,0
2019-03-01T03:21:20.787Z,0
2019-03-01T03:22:30.655Z,0
2019-03-01T03:23:40.788Z,0
2019-03-01T03:24:51.107Z,0
2019-03-01T03:26:01.212Z,0
2019-03-01T03:27:11.356Z,0
2019-03-01T03:28:21.562Z,0
2019-03-01T03:29:31.732Z,0
2019-03-01T03:30:41.858Z,0
2019-03-01T03:31:52.061Z,0
2019-03-01T03:33:01.990Z,0
2019-03-01T03:34:12.160Z,0
2019-03-01T03:35:22.460Z,0
2019-03-01T03:36:32.567Z,0
2019-03-01T03:37:42.501Z,0
2019-03-01T03:38:52.668Z,0
2019-03-01T03:40:02.828Z,0
2019-03-01T03:41:12.960Z,0
2019-03-01T03:42:23.067Z,0
2019-03-01T03:43:33.170Z,0
2019-03-01T03:44:43.290Z,0
2019-03-01T03:45:53.433Z,0
2019-03-01T03:47:03.591Z,0
2019-03-01T03:48:13.811Z,0
2019-03-01T03:49:23.990Z,0
2019-03-01T03:50:34.118Z,0
2019-03-01T03:51:44.232Z,0
2019-03-01T03:52:54.387Z,0
2019-03-01T03:54:04.504Z,0
2019-03-01T03:55:14.622Z,0
2019-03-01T03:56:24.734Z,0
2019-03-01T03:57:34.853Z,0
2019-03-01T03:58:44.985Z,0
2019-03-01T03:59:55.127Z,0
2019-03-01T04:01:05.263Z,0
2019-03-01T04:02:15.376Z,0
2019-03-01T04:03:25.486Z,0
2019-03-01T04:04:35.607Z,0
2019-03-01T04:05:45.739Z,0
2019-03-01T04:06:55.858Z,0
2019-03-01T04:08:05.966Z,0
2019-03-01T04:09:16.123Z,0
2019-03-01T04:10:26.272Z,0
2019-03-01T04:11:36.424Z,0
2019-03-01T04:12:46.563Z,0
2019-03-01T04:13:56.739Z,0
2019-03-01T04:15:06.855Z,0
2019-03-01T04:16:16.953Z,0
2019-03-01T04:17:26.803Z,0
2019-03-01T04:18:36.915Z,0
2019-03-01T04:19:47.037Z,0
2019-03-01T04:20:57.195Z,0
2019-03-01T04:22:07.320Z,0
2019-03-01T04:23:17.435Z,0
2019-03-01T04:24:27.243Z,0
2019-03-01T04:25:37.383Z,0
2019-03-01T04:26:47.517Z,0
2019-03-01T04:27:58.450Z,0
2019-03-01T04:29:08.651Z,0
2019-03-01T04:30:18.791Z,0
2019-03-01T04:31:28.911Z,0
2019-03-01T04:32:38.799Z,0
2019-03-01T04:33:48.937Z,0
2019-03-01T04:34:59.086Z,0
2019-03-01T04:36:09.200Z,0
2019-03-01T04:37:19.087Z,0
2019-03-01T04:38:29.215Z,0
2019-03-01T04:39:40.320Z,0
2019-03-01T04:40:50.434Z,0
2019-03-01T04:42:00.541Z,0
2019-03-01T04:43:10.644Z,0
2019-03-01T04:44:20.745Z,0
2019-03-01T04:45:30.862Z,0
2019-03-01T04:46:40.950Z,0
2019-03-01T04:47:51.073Z,0
2019-03-01T04:49:01.167Z,0
2019-03-01T04:50:11.296Z,0
2019-03-01T04:51:21.414Z,0
2019-03-01T04:52:31.547Z,0
2019-03-01T04:53:41.420Z,0
2019-03-01T04:54:51.540Z,0
2019-03-01T04:56:01.662Z,0
2019-03-01T04:57:11.548Z,0
2019-03-01T04:58:21.749Z,0
2019-03-01T04:59:31.908Z,0
2019-03-01T05:00:41.800Z,0
2019-03-01T05:01:51.923Z,0
2019-03-01T05:03:02.097Z,0
2019-03-01T05:04:12.292Z,0
2019-03-01T05:05:22.424Z,0
2019-03-01T05:06:32.582Z,0
2019-03-01T05:07:42.700Z,0
2019-03-01T05:08:52.801Z,0
2019-03-01T05:10:03.016Z,0
2019-03-01T05:11:13.132Z,0
2019-03-01T05:12:23.258Z,0
2019-03-01T05:13:33.136Z,0
2019-03-01T05:14:43.243Z,0
2019-03-01T05:15:53.355Z,0
2019-03-01T05:17:03.477Z,0
2019-03-01T05:18:13.659Z,0
2019-03-01T05:19:23.780Z,0
2019-03-01T05:20:35.630Z,0
2019-03-01T05:21:45.138Z,0
2019-03-01T05:22:55.256Z,0
2019-03-01T05:24:05.406Z,0
2019-03-01T05:25:15.546Z,0
2019-03-01T05:26:25.682Z,0
2019-03-01T05:27:35.565Z,0
2019-03-01T05:28:45.665Z,0
2019-03-01T05:29:55.839Z,0
2019-03-01T05:31:05.951Z,0
2019-03-01T05:32:16.057Z,0
2019-03-01T05:33:26.196Z,0
2019-03-01T05:34:36.320Z,0
2019-03-01T05:35:46.467Z,0
2019-03-01T05:36:56.630Z,0
2019-03-01T05:38:06.779Z,0
2019-03-01T05:39:16.897Z,0
2019-03-01T05:40:27.002Z,0
2019-03-01T05:41:37.108Z,0
2019-03-01T05:42:47.254Z,0
2019-03-01T05:43:57.419Z,0
2019-03-01T05:45:07.647Z,0
2019-03-01T05:46:17.767Z,0
2019-03-01T05:47:27.898Z,0
2019-03-01T05:48:38.033Z,0
2019-03-01T05:49:48.132Z,0
2019-03-01T05:50:58.265Z,0
2019-03-01T05:52:08.377Z,0
2019-03-01T05:53:18.501Z,0
2019-03-01T05:54:28.606Z,0
2019-03-01T05:55:38.714Z,0
2019-03-01T05:56:48.824Z,0
2019-03-01T05:57:58.926Z,0
2019-03-01T05:59:09.663Z,0
2019-03-01T06:00:19.783Z,0
2019-03-01T06:01:29.888Z,0
2019-03-01T06:02:39.997Z,0
2019-03-01T06:03:50.111Z,0
2019-03-01T06:05:01.246Z,0
2019-03-01T06:06:11.122Z,0
2019-03-01T06:07:21.226Z,0
2019-03-01T06:08:31.325Z,0
2019-03-01T06:09:41.434Z,0
2019-03-01T06:10:53.179Z,0
2019-03-01T06:12:03.335Z,0
2019-03-01T06:13:13.587Z,0
2019-03-01T06:14:23.684Z,0
2019-03-01T06:15:33.921Z,0
2019-03-01T06:16:45.045Z,0
2019-03-01T06:17:55.154Z,0
2019-03-01T06:19:05.273Z,0
2019-03-01T06:20:15.380Z,0
2019-03-01T06:21:25.475Z,5
2019-03-01T06:22:35.597Z,5
2019-03-01T06:23:45.690Z,5
2019-03-01T06:24:55.804Z,5
2019-03-01T06:26:05.934Z,5
2019-03-01T06:27:16.420Z,5
2019-03-01T06:28:26.604Z,10
2019-03-01T06:29:36.715Z,15
2019-03-01T06:30:56.376Z,15
2019-03-01T06:32:06.483Z,15
2019-03-01T06:33:16.587Z,10
2019-03-01T06:34:26.714Z,10
2019-03-01T06:35:36.825Z,5
2019-03-01T06:36:46.580Z,5
2019-03-01T06:37:56.720Z,5
2019-03-01T06:39:06.857Z,5
2019-03-01T06:40:16.971Z,10
2019-03-01T06:41:27.078Z,10
2019-03-01T06:42:37.197Z,10
2019-03-01T06:43:47.314Z,10
2019-03-01T06:44:57.428Z,10
2019-03-01T06:46:07.534Z,10
2019-03-01T06:47:17.642Z,10
2019-03-01T06:48:27.772Z,10
2019-03-01T06:49:37.885Z,10
2019-03-01T06:50:47.989Z,10
2019-03-01T06:51:58.083Z,10
2019-03-01T06:53:08.206Z,15
2019-03-01T06:54:18.084Z,15
2019-03-01T06:55:28.216Z,15
2019-03-01T06:56:38.323Z,15
2019-03-01T06:57:48.429Z,15
2019-03-01T06:58:58.547Z,20
2019-03-01T07:00:08.670Z,25
2019-03-01T07:01:18.791Z,25
2019-03-01T07:02:28.888Z,25
2019-03-01T07:03:39.013Z,30
2019-03-01T07:04:49.140Z,30
2019-03-01T07:06:07.874Z,35
2019-03-01T07:07:17.748Z,35
2019-03-01T07:08:27.864Z,40
2019-03-01T07:09:37.730Z,30
2019-03-01T07:10:47.879Z,25
2019-03-01T07:11:58.027Z,15
2019-03-01T07:13:08.143Z,10
2019-03-01T07:14:18.283Z,10
2019-03-01T07:15:28.394Z,10
2019-03-01T07:16:38.493Z,10
2019-03-01T07:17:48.623Z,10
2019-03-01T07:18:58.466Z,10
2019-03-01T07:20:08.742Z,10
2019-03-01T07:21:18.933Z,15
2019-03-01T07:22:29.038Z,15
2019-03-01T07:23:46.431Z,15
2019-03-01T07:24:56.538Z,20
2019-03-01T07:26:06.693Z,20
2019-03-01T07:27:17.259Z,20
2019-03-01T07:28:27.362Z,20
2019-03-01T07:29:37.489Z,25
2019-03-01T07:30:47.731Z,30
2019-03-01T07:31:57.837Z,30
2019-03-01T07:33:07.962Z,35
2019-03-01T07:34:18.103Z,35
2019-03-01T07:35:28.238Z,40
2019-03-01T07:36:38.336Z,35
2019-03-01T07:37:48.457Z,40
2019-03-01T07:38:58.327Z,40
2019-03-01T07:40:08.267Z,35
2019-03-01T07:41:18.398Z,35
2019-03-01T07:42:28.518Z,40
2019-03-01T07:43:38.619Z,45
2019-03-01T07:44:48.730Z,45
2019-03-01T07:45:59.232Z,50
2019-03-01T07:47:09.354Z,55
2019-03-01T07:48:19.703Z,60
2019-03-01T07:49:29.839Z,45
2019-03-01T07:50:39.959Z,45
2019-03-01T07:51:50.079Z,45
2019-03-01T07:53:05.807Z,45
2019-03-01T07:54:22.205Z,50
2019-03-01T07:55:37.562Z,65
2019-03-01T07:56:49.678Z,55
2019-03-01T07:58:00.362Z,45
2019-03-01T07:59:10.790Z,40
2019-03-01T08:00:24.414Z,35
2019-03-01T08:01:36.777Z,25
2019-03-01T08:02:50.667Z,25
2019-03-01T08:04:02.887Z,35
2019-03-01T08:05:16.305Z,35
2019-03-01T08:06:26.696Z,30
2019-03-01T08:07:36.813Z,40
2019-03-01T08:08:49.420Z,45
2019-03-01T08:10:01.453Z,50
2019-03-01T08:11:12.460Z,45
2019-03-01T08:12:22.597Z,45
2019-03-01T08:13:34.138Z,50
2019-03-01T08:14:44.265Z,55
2019-03-01T08:15:55.579Z,60
2019-03-01T08:17:06.480Z,55
2019-03-01T08:18:18.372Z,55
2019-03-01T08:19:33.009Z,50
2019-03-01T08:20:43.612Z,80
2019-03-01T08:21:57.129Z,90
2019-03-01T08:23:09.606Z,70
2019-03-01T08:24:21.463Z,85
2019-03-01T08:25:35.824Z,90
2019-03-01T08:26:45.969Z,70
2019-03-01T08:27:58.174Z,70
2019-03-01T08:29:09.510Z,65
2019-03-01T08:30:20.855Z,75
2019-03-01T08:31:31.596Z,75
2019-03-01T08:32:41.723Z,70
2019-03-01T08:33:53.269Z,70
2019-03-01T08:35:05.870Z,75
2019-03-01T08:36:16.874Z,90
2019-03-01T08:37:27.347Z,115
2019-03-01T08:38:40.719Z,135
2019-03-01T08:39:52.195Z,160
2019-03-01T08:41:04.155Z,160
2019-03-01T08:42:14.264Z,145
2019-03-01T08:43:24.373Z,125
2019-03-01T08:44:34.238Z,135
2019-03-01T08:45:44.383Z,155
2019-03-01T08:46:56.006Z,155
2019-03-01T08:48:09.253Z,155
2019-03-01T08:49:20.941Z,160
2019-03-01T08:50:31.062Z,165
2019-03-01T08:51:41.177Z,165
2019-03-01T08:52:51.299Z,135
2019-03-01T08:54:01.498Z,110
2019-03-01T08:55:14.076Z,90
2019-03-01T08:56:33.430Z,65
2019-03-01T08:57:53.889Z,60
2019-03-01T08:59:04.009Z,75
2019-03-01T09:00:14.119Z,70
2019-03-01T09:01:25.208Z,75
2019-03-01T09:02:34.703Z,50
2019-03-01T09:03:46.508Z,40
2019-03-01T09:05:00.714Z,40
2019-03-01T09:06:10.558Z,40
2019-03-01T09:07:20.685Z,45
2019-03-01T09:08:31.395Z,80
2019-03-01T09:09:41.514Z,115
2019-03-01T09:10:51.678Z,125
2019-03-01T09:12:01.784Z,140
2019-03-01T09:13:11.914Z,140
2019-03-01T09:14:26.021Z,140
2019-03-01T09:15:39.328Z,155
2019-03-01T09:16:50.761Z,170
2019-03-01T09:18:00.868Z,150
2019-03-01T09:19:10.989Z,135
2019-03-01T09:20:21.617Z,125
2019-03-01T09:21:31.957Z,120
2019-03-01T09:22:43.410Z,110
2019-03-01T09:23:59.937Z,85
2019-03-01T09:25:15.037Z,70
2019-03-01T09:26:27.839Z,75
2019-03-01T09:27:40.637Z,85
2019-03-01T09:28:50.750Z,90
2019-03-01T09:30:08.649Z,115
2019-03-01T09:31:18.791Z,115
2019-03-01T09:32:30.364Z,100
2019-03-01T09:33:43.682Z,85
2019-03-01T09:34:53.828Z,65
2019-03-01T09:36:03.976Z,50
2019-03-01T09:37:14.115Z,50
2019-03-01T09:38:23.614Z,30
2019-03-01T09:39:35.117Z,20
2019-03-01T09:40:46.504Z,20
2019-03-01T09:42:06.405Z,20
2019-03-01T09:43:16.625Z,15
2019-03-01T09:44:26.767Z,15
2019-03-01T09:45:50.649Z,15
2019-03-01T09:47:04.305Z,15
2019-03-01T09:48:18.861Z,15
2019-03-01T09:49:33.698Z,15
2019-03-01T09:50:45.574Z,15
2019-03-01T09:51:59.468Z,20
2019-03-01T09:53:09.622Z,25
2019-03-01T09:54:20.011Z,25
2019-03-01T09:55:30.136Z,25
2019-03-01T09:56:40.267Z,25
2019-03-01T09:57:50.420Z,30
2019-03-01T09:59:00.561Z,45
2019-03-01T10:00:10.709Z,40
2019-03-01T10:01:20.829Z,45
2019-03-01T10:02:30.974Z,45
2019-03-01T10:03:41.117Z,40
2019-03-01T10:04:51.251Z,40
2019-03-01T10:06:01.388Z,40
2019-03-01T10:07:11.517Z,45
2019-03-01T10:08:21.644Z,45
2019-03-01T10:09:31.796Z,55
2019-03-01T10:10:41.966Z,60
2019-03-01T10:11:52.090Z,65
2019-03-01T10:13:01.960Z,65
2019-03-01T10:14:12.106Z,80
2019-03-01T10:15:22.229Z,80
2019-03-01T10:16:32.383Z,70
2019-03-01T10:17:42.525Z,65
2019-03-01T10:18:52.673Z,60
2019-03-01T10:20:02.819Z,60
2019-03-01T10:21:12.954Z,45
2019-03-01T10:22:23.094Z,35
2019-03-01T10:23:33.246Z,30
2019-03-01T10:24:43.378Z,35
2019-03-01T10:25:53.509Z,35
2019-03-01T10:27:05.519Z,40
2019-03-01T10:28:15.278Z,50
2019-03-01T10:29:25.390Z,50
2019-03-01T10:30:35.525Z,60
2019-03-01T10:31:45.655Z,85
2019-03-01T10:32:55.780Z,85
2019-03-01T10:34:05.905Z,65
2019-03-01T10:35:16.064Z,50
2019-03-01T10:36:26.198Z,45
2019-03-01T10:37:36.354Z,45
2019-03-01T10:38:46.469Z,50
2019-03-01T10:40:04.800Z,55
2019-03-01T10:41:14.941Z,55
2019-03-01T10:42:25.053Z,50
2019-03-01T10:43:35.235Z,50
2019-03-01T10:44:45.376Z,65
2019-03-01T10:45:55.505Z,85
2019-03-01T10:47:06.850Z,105
2019-03-01T10:48:16.995Z,110
2019-03-01T10:49:27.109Z,105
2019-03-01T10:50:37.209Z,110
2019-03-01T10:51:47.358Z,105
2019-03-01T10:52:57.500Z,100
2019-03-01T10:54:07.634Z,95
2019-03-01T10:55:17.762Z,105
2019-03-01T10:56:27.918Z,110
2019-03-01T10:57:38.027Z,110
2019-03-01T10:58:48.163Z,95
2019-03-01T10:59:58.304Z,95
2019-03-01T11:01:08.441Z,75
2019-03-01T11:02:18.585Z,60
2019-03-01T11:03:28.748Z,50
2019-03-01T11:04:38.869Z,50
2019-03-01T11:05:49.205Z,50
2019-03-01T11:06:59.384Z,60
2019-03-01T11:08:09.498Z,55
2019-03-01T11:09:19.624Z,45
2019-03-01T11:10:29.759Z,45
2019-03-01T11:11:41.258Z,45
2019-03-01T11:12:51.476Z,40
2019-03-01T11:14:01.610Z,50
2019-03-01T11:15:11.476Z,45
2019-03-01T11:16:21.820Z,40
2019-03-01T11:17:31.912Z,55
2019-03-01T11:18:42.047Z,60
2019-03-01T11:19:52.174Z,60
2019-03-01T11:21:02.277Z,60
2019-03-01T11:22:12.394Z,60
2019-03-01T11:23:22.546Z,75
2019-03-01T11:24:32.670Z,115
2019-03-01T11:25:42.821Z,170
2019-03-01T11:26:52.930Z,175
2019-03-01T11:28:03.028Z,160
2019-03-01T11:29:13.142Z,185
2019-03-01T11:30:23.021Z,225
2019-03-01T11:31:33.139Z,250
2019-03-01T11:32:42.992Z,245
2019-03-01T11:33:53.125Z,230
2019-03-01T11:35:03.257Z,220
2019-03-01T11:36:13.463Z,235
2019-03-01T11:37:23.583Z,240
2019-03-01T11:38:33.695Z,245
2019-03-01T11:39:43.805Z,205
2019-03-01T11:40:55.806Z,205
2019-03-01T11:42:06.079Z,255
2019-03-01T11:43:16.202Z,235
2019-03-01T11:44:26.022Z,230
2019-03-01T11:45:36.152Z,200
2019-03-01T11:46:46.289Z,140
2019-03-01T11:47:56.448Z,130
2019-03-01T11:49:06.556Z,140
2019-03-01T11:50:16.093Z,165
2019-03-01T11:51:27.745Z,165
2019-03-01T11:52:37.957Z,155
2019-03-01T11:53:48.082Z,125
2019-03-01T11:54:58.237Z,130
2019-03-01T11:56:08.353Z,140
2019-03-01T11:57:18.494Z,130
2019-03-01T11:58:28.358Z,120
2019-03-01T11:59:38.479Z,115
2019-03-01T12:00:57.313Z,110
2019-03-01T12:02:07.432Z,125
2019-03-01T12:03:18.034Z,115
2019-03-01T12:04:28.190Z,120
2019-03-01T12:05:38.313Z,140
2019-03-01T12:06:48.437Z,160
2019-03-01T12:07:58.610Z,125
2019-03-01T12:09:08.729Z,100
2019-03-01T12:10:19.694Z,95
2019-03-01T12:11:29.809Z,85
2019-03-01T12:12:39.933Z,75
2019-03-01T12:13:50.055Z,75
2019-03-01T12:15:00.198Z,75
2019-03-01T12:16:10.483Z,60
2019-03-01T12:17:20.617Z,65
2019-03-01T12:18:30.765Z,65
2019-03-01T12:19:40.879Z,75
2019-03-01T12:20:51.069Z,65
2019-03-01T12:22:01.186Z,55
2019-03-01T12:23:11.309Z,60
2019-03-01T12:24:21.428Z,55
2019-03-01T12:25:31.560Z,55
2019-03-01T12:26:41.728Z,60
2019-03-01T12:27:51.870Z,50
2019-03-01T12:29:02.017Z,55
2019-03-01T12:30:12.130Z,70
2019-03-01T12:31:22.243Z,70
2019-03-01T12:32:32.420Z,90
2019-03-01T12:33:42.579Z,130
2019-03-01T12:34:52.721Z,90
2019-03-01T12:36:02.848Z,90
2019-03-01T12:37:13.009Z,100
2019-03-01T12:38:23.136Z,85
2019-03-01T12:39:33.262Z,75
2019-03-01T12:40:43.032Z,65
2019-03-01T12:41:53.189Z,55
2019-03-01T12:43:03.309Z,60
2019-03-01T12:44:13.414Z,50
2019-03-01T12:45:23.553Z,45
2019-03-01T12:46:33.679Z,45
2019-03-01T12:47:43.817Z,40
2019-03-01T12:48:54.039Z,40
2019-03-01T12:50:05.084Z,35
2019-03-01T12:51:15.236Z,45
2019-03-01T12:52:25.391Z,35
2019-03-01T12:53:35.542Z,40
2019-03-01T12:54:45.641Z,45
2019-03-01T12:55:55.769Z,50
2019-03-01T12:57:05.644Z,50
2019-03-01T12:58:24.274Z,35
2019-03-01T12:59:34.409Z,45
2019-03-01T13:00:44.524Z,50
2019-03-01T13:01:54.648Z,65
2019-03-01T13:03:10.589Z,60
2019-03-01T13:04:27.260Z,50
2019-03-01T13:05:39.709Z,55
2019-03-01T13:06:49.838Z,55
2019-03-01T13:08:01.728Z,50
2019-03-01T13:09:11.933Z,50
2019-03-01T13:10:22.087Z,55
2019-03-01T13:11:32.193Z,60
2019-03-01T13:12:42.325Z,70
2019-03-01T13:13:52.454Z,80
2019-03-01T13:15:02.713Z,95
2019-03-01T13:16:12.876Z,100
2019-03-01T13:17:23.009Z,85
2019-03-01T13:18:33.161Z,70
2019-03-01T13:19:43.295Z,65
2019-03-01T13:20:53.418Z,70
2019-03-01T13:22:03.556Z,65
2019-03-01T13:23:15.456Z,60
2019-03-01T13:24:26.477Z,55
2019-03-01T13:25:39.796Z,45
2019-03-01T13:26:50.569Z,70
2019-03-01T13:28:03.108Z,65
2019-03-01T13:29:13.252Z,55
2019-03-01T13:30:23.410Z,45
2019-03-01T13:31:33.544Z,70
2019-03-01T13:32:43.688Z,75
2019-03-01T13:33:53.316Z,70
2019-03-01T13:35:03.440Z,65
2019-03-01T13:36:15.778Z,60
2019-03-01T13:37:29.924Z,65
2019-03-01T13:38:43.401Z,70
2019-03-01T13:39:55.920Z,70
2019-03-01T13:41:10.103Z,70
2019-03-01T13:42:23.137Z,75
2019-03-01T13:43:35.525Z,65
2019-03-01T13:44:49.404Z,55
2019-03-01T13:46:05.067Z,55
2019-03-01T13:47:18.987Z,55
2019-03-01T13:48:29.559Z,45
2019-03-01T13:49:40.140Z,55
2019-03-01T13:50:51.976Z,50
2019-03-01T13:52:03.496Z,45
2019-03-01T13:53:13.842Z,40
2019-03-01T13:54:26.152Z,40
2019-03-01T13:55:37.373Z,35
2019-03-01T13:56:47.526Z,35
2019-03-01T13:58:00.628Z,35
2019-03-01T13:59:13.478Z,35
2019-03-01T14:00:23.702Z,35
2019-03-01T14:01:36.827Z,40
2019-03-01T14:02:52.495Z,40
2019-03-01T14:04:09.429Z,45
2019-03-01T14:05:24.414Z,40
2019-03-01T14:06:34.513Z,50
2019-03-01T14:07:44.655Z,45
2019-03-01T14:08:54.426Z,40
2019-03-01T14:10:09.113Z,40
2019-03-01T14:11:25.977Z,30
2019-03-01T14:12:40.279Z,25
2019-03-01T14:13:56.042Z,25
2019-03-01T14:15:10.939Z,30
2019-03-01T14:16:27.172Z,30
2019-03-01T14:17:37.296Z,35
2019-03-01T14:18:47.603Z,35
2019-03-01T14:19:57.728Z,25
2019-03-01T14:21:08.884Z,40
2019-03-01T14:22:22.857Z,30
2019-03-01T14:23:34.726Z,25
2019-03-01T14:24:44.883Z,35
2019-03-01T14:25:57.038Z,35
2019-03-01T14:27:08.614Z,30
2019-03-01T14:28:18.760Z,30
2019-03-01T14:29:28.989Z,30
2019-03-01T14:30:42.785Z,30
2019-03-01T14:31:53.486Z,30
2019-03-01T14:33:07.140Z,35
2019-03-01T14:34:19.278Z,35
2019-03-01T14:35:34.201Z,35
2019-03-01T14:36:48.042Z,40
2019-03-01T14:38:03.972Z,35
2019-03-01T14:39:17.330Z,35
2019-03-01T14:40:30.798Z,35
2019-03-01T14:41:43.967Z,35
2019-03-01T14:42:57.248Z,40
2019-03-01T14:44:09.639Z,50
2019-03-01T14:45:20.557Z,35
2019-03-01T14:46:31.821Z,30
2019-03-01T14:47:42.518Z,30
2019-03-01T14:48:55.773Z,40
2019-03-01T14:50:08.197Z,35
2019-03-01T14:51:21.243Z,35
2019-03-01T14:52:31.903Z,30
2019-03-01T14:53:45.347Z,45
2019-03-01T14:54:55.545Z,45
2019-03-01T14:56:09.310Z,50
2019-03-01T14:57:22.190Z,65
2019-03-01T14:58:33.195Z,65
2019-03-01T14:59:47.808Z,65
2019-03-01T15:01:01.374Z,85
2019-03-01T15:02:13.157Z,75
2019-03-01T15:03:27.221Z,50
2019-03-01T15:04:39.030Z,45
2019-03-01T15:05:52.211Z,45
2019-03-01T15:07:04.817Z,55
2019-03-01T15:08:17.361Z,70
2019-03-01T15:09:30.401Z,80
2019-03-01T15:10:42.833Z,75
2019-03-01T15:11:56.170Z,65
2019-03-01T15:13:08.317Z,70
2019-03-01T15:14:23.253Z,65
2019-03-01T15:15:39.743Z,55
2019-03-01T15:16:53.135Z,60
2019-03-01T15:18:04.311Z,50
2019-03-01T15:19:17.886Z,50
2019-03-01T15:20:33.478Z,50
2019-03-01T15:21:46.838Z,60
2019-03-01T15:22:58.523Z,65
2019-03-01T15:24:10.798Z,50
2019-03-01T15:25:22.481Z,50
2019-03-01T15:26:35.844Z,60
2019-03-01T15:27:49.614Z,55
2019-03-01T15:29:06.047Z,55
2019-03-01T15:30:19.640Z,65
2019-03-01T15:31:30.026Z,65
2019-03-01T15:32:42.578Z,60
2019-03-01T15:33:56.447Z,55
2019-03-01T15:35:12.553Z,60
2019-03-01T15:36:26.062Z,55
2019-03-01T15:37:40.797Z,50
2019-03-01T15:38:50.951Z,55
2019-03-01T15:40:03.885Z,50
2019-03-01T15:41:16.864Z,45
2019-03-01T15:42:30.071Z,45
2019-03-01T15:43:40.755Z,45
2019-03-01T15:44:50.914Z,45
2019-03-01T15:46:01.052Z,45
2019-03-01T15:47:11.214Z,45
2019-03-01T15:48:21.613Z,45
2019-03-01T15:49:33.447Z,45
2019-03-01T15:50:43.616Z,50
2019-03-01T15:51:54.000Z,45
2019-03-01T15:53:04.155Z,45
2019-03-01T15:54:14.329Z,45
2019-03-01T15:55:24.502Z,50
2019-03-01T15:56:34.638Z,45
2019-03-01T15:57:44.773Z,40
2019-03-01T15:58:56.359Z,30
2019-03-01T16:00:06.551Z,25
2019-03-01T16:01:21.415Z,25
2019-03-01T16:02:31.545Z,20
2019-03-01T16:03:41.676Z,20
2019-03-01T16:04:51.810Z,20
2019-03-01T16:06:01.987Z,20
2019-03-01T16:07:12.156Z,20
2019-03-01T16:08:22.309Z,20
2019-03-01T16:09:35.833Z,15
2019-03-01T16:10:46.686Z,15
2019-03-01T16:11:59.662Z,10
2019-03-01T16:13:16.376Z,10
2019-03-01T16:14:29.763Z,10
2019-03-01T16:15:43.727Z,10
2019-03-01T16:16:57.016Z,10
2019-03-01T16:18:10.439Z,10
2019-03-01T16:19:23.312Z,10
2019-03-01T16:20:35.763Z,15
2019-03-01T16:21:48.617Z,15
2019-03-01T16:23:02.234Z,10
2019-03-01T16:24:15.107Z,10
2019-03-01T16:25:27.980Z,10
2019-03-01T16:26:43.483Z,10
2019-03-01T16:27:58.542Z,10
2019-03-01T16:29:12.800Z,10
2019-03-01T16:30:25.443Z,10
2019-03-01T16:31:37.648Z,10
2019-03-01T16:32:56.965Z,10
2019-03-01T16:34:09.985Z,5
2019-03-01T16:35:23.761Z,5
2019-03-01T16:36:37.543Z,5
2019-03-01T16:37:47.720Z,5
2019-03-01T16:38:58.726Z,5
2019-03-01T16:40:10.765Z,5
2019-03-01T16:41:21.120Z,5
2019-03-01T16:42:41.225Z,5
2019-03-01T16:43:51.431Z,0
2019-03-01T16:45:01.589Z,0
2019-03-01T16:46:11.726Z,0
2019-03-01T16:47:23.296Z,0
2019-03-01T16:48:33.556Z,0
2019-03-01T16:49:43.720Z,0
2019-03-01T16:50:54.536Z,0
2019-03-01T16:52:04.685Z,0
2019-03-01T16:53:15.261Z,0
2019-03-01T16:54:26.246Z,0
2019-03-01T16:55:38.291Z,0
2019-03-01T16:56:49.144Z,0
2019-03-01T16:58:13.447Z,0
2019-03-01T16:59:23.635Z,0
2019-03-01T17:00:33.413Z,0
2019-03-01T17:01:45.584Z,0
2019-03-01T17:02:56.611Z,0